Aérodrome :
LOGIN :

S'inscrire | Disclaimer

   EN    FR    IT 

 










Légende :    VFR   VFR Marginal   IFR   IFR Intensif   IFR Très Intensif
Visi : 
Plafond : 
>= 8 km
>= 3000ft
5 à 8 km
1000 à 3000 ft
1500m à 5 km
500 à 1000 ft
800 à 1500m
200 à 500 ft
< 800m
< 200 ft
Symboles :   Orages  Brouillard  Fortes neiges  Fortes précipitations  Vent > 20 kt
SIGMETs :   Divers  Orages  Givrage  Turbulence  Onde Orograph.  Cendres Volcan.






- Altitude de l'aérodrome : 963 ft
- Code IATA : TGM


LRTM - Transilvania Târgu Mureş Int.

DERNIER METAR :
  • 170130Z AUTO 10006KT 6000 NCD M03/M04 Q1028

METARs EXPIRÉS :
  • 170100Z AUTO 09005KT 5000 BR NCD M03/M04 Q1028
  • 170030Z AUTO 09006KT 5000 BR NCD M02/M03 Q1028
  • 170000Z AUTO 09005KT 5000 BR NCD M02/M03 Q1029
  • 162330Z AUTO 09005KT 6000 NCD M02/M03 Q1029
  • 162300Z AUTO 10004KT 6000 NCD M02/M03 Q1029

Prévision TAF périmée.



MET'MAP, la Météo Aéronautique d'un coup d'oeil ! - Copyright ORBIFLY Décembre 2007 - Disclaimer

ORBIFLY MET'MAP TEAM :

Programmation & Développement : Alexandra Zaïnal
Sur une idée originale de : Baudouin d'Aumeries
Assistance à la programmation : Marc-Olivier Méhu
Soutien technique & logistique : Manuel Goepfert

Contact : metmap@orbifly.com




SOURCES & CREDITS :

   NOAA